Time;durP1;ratioP1;P1;durP2;ratioP2;P2;SDS_P1;SDS_P2;PMS_P1;PMS_P2;Temp;Humidity;BMP_temperature;BMP_pressure;BME280_temperature;BME280_humidity;BME280_pressure;Samples;Min_cycle;Max_cycle;Signal;HPM_P1;HPM_P2
2023/03/16 00:01:59;;;;;;;3.15;1.60;;;11.80;41.80;;;;;;6199077;28;20449;-73
2023/03/16 00:05:02;;;;;;;5.97;1.85;;;11.80;42.10;;;;;;6199360;28;20491;-72
2023/03/16 00:08:04;;;;;;;3.72;1.55;;;11.80;42.20;;;;;;6181603;28;20038;-72
2023/03/16 00:11:08;;;;;;;2.35;1.23;;;11.80;42.30;;;;;;6181068;28;20030;-72
2023/03/16 00:14:12;;;;;;;2.95;1.35;;;11.70;42.40;;;;;;6198513;28;20038;-72
2023/03/16 00:17:18;;;;;;;3.13;1.52;;;11.70;42.40;;;;;;6181569;28;20041;-73
2023/03/16 00:20:20;;;;;;;3.50;1.50;;;11.60;42.40;;;;;;6198674;28;20061;-72
2023/03/16 00:23:27;;;;;;;3.75;1.48;;;11.70;42.50;;;;;;6198156;28;20034;-72
2023/03/16 00:26:28;;;;;;;2.57;1.30;;;11.60;42.50;;;;;;6198708;28;20106;-73
2023/03/16 00:29:33;;;;;;;6.78;1.77;;;11.50;42.60;;;;;;6201979;28;20081;-73
2023/03/16 00:32:36;;;;;;;1.70;1.10;;;11.50;42.60;;;;;;6204762;28;20046;-73
2023/03/16 00:35:37;;;;;;;3.08;1.20;;;11.40;42.70;;;;;;6204853;28;20026;-74
2023/03/16 00:38:48;;;;;;;3.30;1.50;;;11.40;43.00;;;;;;6188994;28;20022;-71
2023/03/16 00:41:57;;;;;;;4.80;1.60;;;11.40;43.10;;;;;;6204728;28;20056;-72
2023/03/16 00:44:59;;;;;;;2.40;1.30;;;11.30;43.20;;;;;;6193653;28;20118;-72
2023/03/16 00:48:00;;;;;;;3.85;1.42;;;11.30;43.30;;;;;;6174301;28;20118;-73
2023/03/16 00:51:06;;;;;;;6.32;1.35;;;11.20;43.30;;;;;;6141159;28;20043;-72
2023/03/16 00:54:07;;;;;;;3.67;1.20;;;11.20;44.00;;;;;;6157088;28;20034;-72
2023/03/16 00:57:14;;;;;;;11.75;1.85;;;11.10;43.50;;;;;;6195472;28;20435;-71
2023/03/16 01:00:16;;;;;;;5.53;1.80;;;11.10;43.70;;;;;;6182834;28;20054;-73
2023/03/16 01:03:17;;;;;;;6.28;1.60;;;11.00;44.40;;;;;;6182798;28;20210;-73
2023/03/16 01:06:19;;;;;;;2.72;1.45;;;10.90;43.90;;;;;;6191229;28;20102;-72
2023/03/16 01:09:21;;;;;;;4.57;1.33;;;10.90;44.10;;;;;;6194669;28;20165;-73
2023/03/16 01:12:22;;;;;;;3.75;1.50;;;10.90;44.40;;;;;;6181435;28;20491;-73
2023/03/16 01:15:23;;;;;;;3.78;1.30;;;10.90;44.40;;;;;;6180554;28;20076;-74
2023/03/16 01:18:28;;;;;;;7.00;1.58;;;10.90;44.50;;;;;;6179735;28;20022;-73
2023/03/16 01:21:32;;;;;;;2.88;1.33;;;10.80;44.70;;;;;;6180342;28;20026;-72
2023/03/16 01:24:36;;;;;;;2.30;1.20;;;10.70;44.80;;;;;;6197981;28;20061;-73
2023/03/16 01:27:37;;;;;;;7.32;1.67;;;10.70;45.00;;;;;;6197746;28;20037;-73
2023/03/16 01:30:42;;;;;;;2.55;1.40;;;10.60;45.10;;;;;;6204243;28;20029;-71
2023/03/16 01:33:44;;;;;;;1.98;1.15;;;10.50;45.30;;;;;;6204180;28;20547;-73
2023/03/16 01:36:50;;;;;;;3.15;1.30;;;10.50;45.40;;;;;;6204578;28;20029;-72
2023/03/16 01:40:05;;;;;;;2.55;1.65;;;10.40;45.40;;;;;;6204600;28;20275;-72
2023/03/16 01:43:06;;;;;;;3.20;1.60;;;10.40;45.40;;;;;;6187493;28;20185;-72
2023/03/16 01:46:26;;;;;;;3.97;1.45;;;10.50;45.50;;;;;;6199396;28;20143;-72
2023/03/16 01:49:34;;;;;;;2.67;1.20;;;10.50;45.50;;;;;;6179219;28;20073;-72
2023/03/16 01:52:37;;;;;;;3.17;1.35;;;10.40;45.50;;;;;;6163402;28;20511;-72
2023/03/16 01:55:38;;;;;;;2.85;1.30;;;10.50;45.50;;;;;;6179145;28;20730;-72
2023/03/16 01:58:42;;;;;;;4.05;1.50;;;10.50;45.50;;;;;;6178417;28;20033;-73
2023/03/16 02:01:46;;;;;;;2.47;1.20;;;10.50;45.40;;;;;;6162507;28;20042;-72
2023/03/16 02:05:30;;;;;;;3.00;1.23;;;10.50;45.30;;;;;;6178900;28;20380;-73
2023/03/16 02:08:32;;;;;;;3.30;1.55;;;10.50;45.40;;;;;;6104931;29;20039;-73
2023/03/16 02:11:34;;;;;;;2.92;1.45;;;10.50;45.40;;;;;;6121420;29;20460;-72
2023/03/16 02:14:46;;;;;;;3.90;1.40;;;10.50;45.50;;;;;;6105539;29;20366;-72
2023/03/16 02:17:56;;;;;;;6.97;1.80;;;10.40;45.50;;;;;;6104986;29;20103;-73
2023/03/16 02:21:43;;;;;;;2.05;1.25;;;10.40;45.60;;;;;;6120520;29;20027;-74
2023/03/16 02:24:45;;;;;;;3.42;1.35;;;10.40;45.60;;;;;;6105489;29;20035;-74
2023/03/16 02:27:55;;;;;;;3.47;1.33;;;10.50;45.70;;;;;;6105070;29;20048;-73
2023/03/16 02:31:09;;;;;;;2.10;1.27;;;10.40;45.80;;;;;;6105461;29;20123;-72
2023/03/16 02:34:12;;;;;;;3.80;1.63;;;10.40;45.80;;;;;;6105172;29;20055;-72
2023/03/16 02:37:15;;;;;;;3.58;1.40;;;10.30;45.90;;;;;;6105090;29;20028;-73
2023/03/16 02:40:25;;;;;;;3.58;1.38;;;10.30;46.00;;;;;;6120920;29;20031;-73
2023/03/16 02:43:33;;;;;;;1.67;1.17;;;10.30;46.20;;;;;;6168782;28;20038;-73
2023/03/16 02:47:00;;;;;;;3.22;1.42;;;10.20;46.30;;;;;;6157122;28;20408;-72
2023/03/16 02:50:05;;;;;;;2.40;1.38;;;10.20;46.40;;;;;;6137741;28;20039;-72
2023/03/16 02:53:07;;;;;;;4.30;1.58;;;10.20;46.60;;;;;;6154037;28;20113;-72
2023/03/16 02:56:10;;;;;;;2.25;1.23;;;10.20;46.60;;;;;;6153966;28;20093;-73
2023/03/16 02:59:11;;;;;;;4.05;1.50;;;10.20;46.70;;;;;;6153652;28;20031;-71
2023/03/16 03:02:12;;;;;;;2.08;1.10;;;10.10;46.80;;;;;;6154124;28;20027;-71
2023/03/16 03:05:13;;;;;;;2.30;1.08;;;10.10;47.00;;;;;;6171719;28;20097;-71
2023/03/16 03:08:15;;;;;;;2.85;1.40;;;10.10;47.10;;;;;;6176415;28;20030;-72
2023/03/16 03:11:18;;;;;;;3.85;1.63;;;10.00;47.20;;;;;;6176015;28;20491;-72
2023/03/16 03:14:19;;;;;;;4.53;1.70;;;10.00;47.40;;;;;;6176282;28;20105;-73
2023/03/16 03:17:28;;;;;;;2.70;1.42;;;10.00;47.60;;;;;;6175916;28;20030;-72
2023/03/16 03:20:30;;;;;;;4.17;1.50;;;9.90;47.70;;;;;;6159975;28;20041;-73
2023/03/16 03:23:31;;;;;;;3.85;1.70;;;9.90;48.00;;;;;;6176357;28;20035;-72
2023/03/16 03:26:32;;;;;;;2.72;1.23;;;9.80;48.20;;;;;;6193951;28;20057;-72
2023/03/16 03:29:34;;;;;;;9.20;1.80;;;9.80;48.50;;;;;;6175970;28;20491;-72
2023/03/16 03:32:35;;;;;;;2.47;1.30;;;9.70;48.80;;;;;;6177742;28;20499;-73
2023/03/16 03:35:36;;;;;;;4.18;1.42;;;9.70;49.00;;;;;;6180279;28;20073;-72
2023/03/16 03:38:38;;;;;;;3.17;1.38;;;9.60;49.10;;;;;;6180821;28;20121;-73
2023/03/16 03:41:40;;;;;;;2.88;1.05;;;9.60;49.20;;;;;;6180773;28;20438;-71
2023/03/16 03:44:41;;;;;;;1.02;0.90;;;9.50;49.20;;;;;;6182040;28;20030;-72
2023/03/16 03:47:43;;;;;;;6.75;1.35;;;9.50;49.30;;;;;;6192599;28;20410;-72
2023/03/16 03:50:48;;;;;;;2.17;1.20;;;9.40;49.20;;;;;;6197803;28;20058;-72
2023/03/16 03:54:07;;;;;;;2.90;1.23;;;9.40;49.20;;;;;;6168783;28;20080;-72
2023/03/16 03:57:22;;;;;;;2.67;1.33;;;9.40;49.40;;;;;;6180611;28;20034;-72
2023/03/16 04:00:23;;;;;;;3.33;1.23;;;9.30;49.40;;;;;;6180658;28;20026;-72
2023/03/16 04:03:24;;;;;;;5.45;1.52;;;9.30;49.50;;;;;;6180177;28;20041;-72
2023/03/16 04:06:26;;;;;;;5.07;1.67;;;9.30;49.50;;;;;;6164129;28;20037;-72
2023/03/16 04:09:32;;;;;;;8.98;1.75;;;9.40;49.50;;;;;;6179459;28;20038;-73
2023/03/16 04:12:33;;;;;;;2.65;1.67;;;9.40;49.40;;;;;;6179650;28;20033;-73
2023/03/16 04:15:37;;;;;;;4.20;1.10;;;9.40;49.40;;;;;;6179228;28;20058;-71
2023/03/16 04:18:49;;;;;;;3.80;1.23;;;9.40;49.60;;;;;;6179347;28;20049;-73
2023/03/16 04:21:50;;;;;;;6.50;1.67;;;9.40;49.70;;;;;;6197338;28;20026;-72
2023/03/16 04:24:53;;;;;;;1.75;1.02;;;9.40;49.80;;;;;;6179736;28;20431;-71
2023/03/16 04:27:55;;;;;;;3.35;1.60;;;9.30;49.90;;;;;;6179269;28;20057;-72
2023/03/16 04:31:05;;;;;;;5.88;1.25;;;9.30;49.90;;;;;;6165519;28;20047;-73
2023/03/16 04:34:12;;;;;;;3.80;1.23;;;9.30;49.90;;;;;;6155485;28;20125;-73
2023/03/16 04:37:13;;;;;;;3.65;1.67;;;9.30;49.90;;;;;;6155659;28;20180;-73
2023/03/16 04:40:16;;;;;;;2.10;1.20;;;9.40;49.90;;;;;;6158187;28;20058;-72
2023/03/16 04:43:22;;;;;;;4.00;1.10;;;9.40;49.80;;;;;;6162557;28;20042;-74
2023/03/16 04:46:26;;;;;;;11.73;1.60;;;9.40;49.70;;;;;;6157883;28;20034;-72
2023/03/16 04:49:27;;;;;;;3.42;1.70;;;9.40;49.70;;;;;;6155016;28;20041;-72
2023/03/16 04:52:29;;;;;;;4.57;2.10;;;9.50;49.70;;;;;;6154817;28;20404;-72
2023/03/16 04:55:30;;;;;;;2.97;1.67;;;9.40;49.70;;;;;;6180467;28;20053;-71
2023/03/16 04:58:31;;;;;;;2.92;1.35;;;9.50;49.70;;;;;;6178380;28;20030;-72
2023/03/16 05:01:34;;;;;;;6.13;2.00;;;9.50;49.70;;;;;;6179076;28;20502;-72
2023/03/16 05:04:37;;;;;;;2.60;1.60;;;9.50;49.70;;;;;;6163210;28;20410;-72
2023/03/16 05:07:40;;;;;;;2.33;1.42;;;9.50;49.70;;;;;;6178536;28;20185;-72
2023/03/16 05:10:41;;;;;;;3.08;1.35;;;9.50;49.70;;;;;;6178964;28;20045;-74
2023/03/16 05:13:42;;;;;;;4.63;1.55;;;9.50;49.70;;;;;;6178559;28;20034;-71
2023/03/16 05:16:43;;;;;;;3.03;1.23;;;9.50;49.70;;;;;;6178675;28;20085;-73
2023/03/16 05:19:44;;;;;;;3.80;1.40;;;9.50;49.80;;;;;;6195719;28;20081;-73
2023/03/16 05:22:47;;;;;;;3.80;1.77;;;9.50;49.90;;;;;;6178633;28;20065;-73
2023/03/16 05:25:58;;;;;;;4.63;1.70;;;9.50;50.00;;;;;;6174931;28;20031;-72
2023/03/16 05:29:00;;;;;;;6.35;2.00;;;9.40;50.20;;;;;;6137993;28;20049;-71
2023/03/16 05:32:05;;;;;;;10.73;3.35;;;9.40;50.30;;;;;;6154108;28;20030;-72
2023/03/16 05:35:07;;;;;;;4.95;1.90;;;9.30;50.40;;;;;;6154043;28;20364;-72
2023/03/16 05:38:08;;;;;;;4.72;1.85;;;9.30;50.40;;;;;;6153855;28;20038;-73
2023/03/16 05:41:13;;;;;;;9.70;1.88;;;9.30;50.50;;;;;;6154095;28;20038;-71
2023/03/16 05:44:46;;;;;;;6.65;2.30;;;9.20;50.60;;;;;;6144324;29;20433;-71
2023/03/16 05:48:07;;;;;;;4.57;1.83;;;9.10;50.80;;;;;;6143774;28;20043;-73
2023/03/16 05:51:13;;;;;;;8.57;1.70;;;9.10;51.10;;;;;;6144569;28;20031;-72
2023/03/16 05:54:14;;;;;;;6.53;1.58;;;9.00;51.30;;;;;;6127598;28;20787;-72
2023/03/16 05:57:20;;;;;;;3.88;1.35;;;9.00;51.40;;;;;;6127685;29;20118;-73
2023/03/16 06:00:24;;;;;;;3.15;1.90;;;9.00;51.40;;;;;;6127955;29;20381;-72
2023/03/16 06:03:35;;;;;;;11.50;1.92;;;9.00;51.30;;;;;;6129329;29;20199;-73
2023/03/16 06:06:38;;;;;;;14.48;2.20;;;9.00;51.30;;;;;;6128405;28;20039;-72
2023/03/16 06:09:45;;;;;;;3.72;1.30;;;9.00;51.40;;;;;;6150879;28;20153;-71
2023/03/16 06:12:50;;;;;;;7.88;1.92;;;9.00;51.60;;;;;;6151058;28;20415;-73
2023/03/16 06:15:53;;;;;;;3.97;1.80;;;8.90;51.60;;;;;;6167522;28;20050;-72
2023/03/16 06:18:55;;;;;;;3.20;1.60;;;9.00;51.70;;;;;;6153961;28;20348;-73
2023/03/16 06:21:56;;;;;;;4.13;1.48;;;9.00;51.70;;;;;;6195644;28;20030;-73
2023/03/16 06:24:58;;;;;;;7.70;2.13;;;9.00;51.80;;;;;;6206890;28;20026;-74
2023/03/16 06:27:59;;;;;;;3.60;1.63;;;8.90;51.80;;;;;;6194523;28;20038;-74
2023/03/16 06:31:00;;;;;;;5.88;1.45;;;9.00;51.90;;;;;;6179519;28;20392;-72
2023/03/16 06:34:06;;;;;;;2.42;1.40;;;9.00;52.00;;;;;;6180032;28;20035;-74
2023/03/16 06:37:07;;;;;;;2.65;1.80;;;9.00;51.90;;;;;;6177530;28;20045;-73
2023/03/16 06:40:09;;;;;;;7.15;1.80;;;9.00;52.40;;;;;;6176849;28;20188;-72
2023/03/16 06:43:10;;;;;;;11.55;1.40;;;9.00;51.70;;;;;;6176975;28;20038;-73
2023/03/16 06:46:11;;;;;;;7.05;1.77;;;9.00;51.80;;;;;;6177077;28;20109;-72
2023/03/16 06:49:13;;;;;;;4.38;1.75;;;9.00;51.80;;;;;;6166130;28;20069;-73
2023/03/16 06:52:16;;;;;;;5.35;1.70;;;9.00;51.90;;;;;;6170608;28;20035;-73
2023/03/16 06:55:17;;;;;;;6.40;2.15;;;8.90;52.00;;;;;;6159596;28;20356;-72
2023/03/16 06:58:20;;;;;;;4.68;1.83;;;8.90;52.10;;;;;;6161035;28;20033;-72
2023/03/16 07:01:22;;;;;;;6.07;1.80;;;8.90;52.20;;;;;;6176650;28;20037;-73
2023/03/16 07:04:23;;;;;;;3.25;1.73;;;8.90;52.10;;;;;;6177178;28;20344;-73
2023/03/16 07:07:26;;;;;;;4.18;2.10;;;9.00;52.10;;;;;;6179721;28;20054;-72
2023/03/16 07:10:27;;;;;;;4.13;1.98;;;9.00;52.00;;;;;;6181277;28;20034;-71
2023/03/16 07:13:29;;;;;;;5.63;1.77;;;9.10;52.00;;;;;;6181279;28;20039;-73
2023/03/16 07:16:30;;;;;;;3.70;1.90;;;9.10;51.80;;;;;;6181486;28;20106;-72
2023/03/16 07:19:34;;;;;;;6.28;2.47;;;9.20;51.70;;;;;;6157034;28;20037;-73
2023/03/16 07:22:38;;;;;;;16.92;1.98;;;9.20;51.70;;;;;;6157684;28;20058;-72
2023/03/16 07:25:41;;;;;;;3.85;1.85;;;9.30;51.70;;;;;;6156843;28;20531;-73
2023/03/16 07:28:43;;;;;;;9.68;1.92;;;9.30;51.60;;;;;;6156626;28;20046;-71
2023/03/16 07:31:45;;;;;;;10.32;2.63;;;9.30;51.70;;;;;;6157044;28;20030;-73
2023/03/16 07:34:53;;;;;;;5.75;1.88;;;9.30;51.70;;;;;;6156893;28;20463;-73
2023/03/16 07:37:54;;;;;;;7.28;2.10;;;9.40;51.80;;;;;;6156360;28;20579;-72
2023/03/16 07:40:56;;;;;;;7.60;2.03;;;9.40;51.70;;;;;;6156285;28;20060;-72
2023/03/16 07:43:57;;;;;;;6.65;2.28;;;9.60;51.70;;;;;;6159746;28;20419;-72
2023/03/16 07:46:58;;;;;;;3.50;1.73;;;9.60;51.50;;;;;;6160112;28;20074;-72
2023/03/16 07:50:02;;;;;;;4.18;1.95;;;9.80;51.40;;;;;;6156694;28;20137;-71
2023/03/16 07:53:04;;;;;;;7.03;2.42;;;10.00;51.70;;;;;;6156837;28;20030;-72
2023/03/16 07:56:06;;;;;;;12.32;2.40;;;10.10;50.70;;;;;;6157049;28;20030;-72
2023/03/16 07:59:11;;;;;;;3.60;2.10;;;10.20;50.50;;;;;;6157113;28;20030;-72
2023/03/16 08:02:14;;;;;;;7.63;2.30;;;10.40;50.30;;;;;;6157176;28;20058;-72
2023/03/16 08:05:16;;;;;;;5.35;1.58;;;10.60;50.00;;;;;;6157864;28;20031;-73
2023/03/16 08:08:22;;;;;;;2.65;1.67;;;10.80;49.50;;;;;;6156704;28;20031;-72
2023/03/16 08:11:23;;;;;;;1.95;1.27;;;10.90;48.90;;;;;;6156966;28;20121;-73
2023/03/16 08:14:35;;;;;;;3.53;1.40;;;11.10;48.40;;;;;;6143976;28;20078;-72
2023/03/16 08:17:51;;;;;;;2.80;1.23;;;11.20;47.80;;;;;;6178999;28;20042;-73
2023/03/16 08:20:57;;;;;;;4.20;1.58;;;11.40;47.20;;;;;;6179984;28;20392;-73
2023/03/16 08:24:00;;;;;;;3.78;1.67;;;11.50;47.20;;;;;;6179850;28;20639;-74
2023/03/16 08:27:02;;;;;;;11.57;1.77;;;11.70;47.00;;;;;;6179142;28;20054;-73
2023/03/16 08:30:06;;;;;;;4.38;1.98;;;11.80;46.70;;;;;;6179277;28;20106;-73
2023/03/16 08:33:09;;;;;;;6.15;1.73;;;12.00;46.60;;;;;;6178437;28;20034;-73
2023/03/16 08:36:14;;;;;;;4.45;1.80;;;12.10;46.30;;;;;;6179028;28;20038;-73
2023/03/16 08:39:17;;;;;;;4.72;1.90;;;12.30;45.80;;;;;;6179374;28;20038;-72
2023/03/16 08:42:21;;;;;;;3.78;1.80;;;12.40;45.40;;;;;;6163390;28;20034;-73
2023/03/16 08:45:30;;;;;;;4.35;1.52;;;12.50;45.00;;;;;;6188143;28;20097;-72
2023/03/16 08:48:32;;;;;;;3.60;1.55;;;12.70;44.80;;;;;;6154898;28;20034;-74
2023/03/16 08:51:33;;;;;;;6.15;1.63;;;12.80;44.40;;;;;;6155269;28;20074;-72
2023/03/16 08:54:34;;;;;;;7.18;2.10;;;12.80;44.00;;;;;;6172177;28;20439;-72
2023/03/16 08:57:38;;;;;;;4.47;2.00;;;12.90;43.70;;;;;;6174839;28;20090;-72
2023/03/16 09:00:40;;;;;;;4.18;1.60;;;13.00;43.40;;;;;;6163201;28;20067;-72
2023/03/16 09:03:41;;;;;;;3.53;1.75;;;13.00;43.30;;;;;;6176634;28;20046;-74
2023/03/16 09:06:42;;;;;;;2.65;1.83;;;13.10;43.30;;;;;;6156335;28;20114;-73
2023/03/16 09:09:44;;;;;;;2.90;1.42;;;13.20;43.10;;;;;;6172379;28;20026;-74
2023/03/16 09:12:45;;;;;;;14.65;2.05;;;13.30;42.80;;;;;;6154687;28;20030;-72
2023/03/16 09:15:46;;;;;;;4.78;1.88;;;13.50;42.50;;;;;;6154956;28;20140;-74
2023/03/16 09:18:47;;;;;;;3.47;1.85;;;13.60;42.60;;;;;;6156641;28;20355;-74
2023/03/16 09:21:48;;;;;;;3.65;1.40;;;13.80;42.30;;;;;;6155470;28;20034;-74
2023/03/16 09:24:50;;;;;;;3.38;1.30;;;13.90;42.00;;;;;;6155428;28;20392;-75
2023/03/16 09:27:51;;;;;;;3.70;1.10;;;14.10;41.90;;;;;;6154256;28;20047;-73
2023/03/16 09:30:56;;;;;;;3.63;1.20;;;14.20;41.30;;;;;;6153251;28;20022;-73
2023/03/16 09:33:58;;;;;;;2.58;1.33;;;14.20;41.00;;;;;;6154175;28;20043;-73
2023/03/16 09:37:00;;;;;;;5.65;1.70;;;14.40;40.60;;;;;;6170534;28;20113;-72
2023/03/16 09:40:01;;;;;;;7.78;2.08;;;14.50;40.50;;;;;;6154300;28;20038;-72
2023/03/16 09:43:14;;;;;;;5.95;2.30;;;14.50;39.80;;;;;;6171140;28;20423;-73
2023/03/16 09:46:24;;;;;;;11.82;2.35;;;14.50;39.70;;;;;;6154164;28;20031;-74
2023/03/16 09:49:35;;;;;;;4.47;2.60;;;14.50;39.40;;;;;;6153567;28;20196;-74
2023/03/16 09:53:03;;;;;;;7.82;2.90;;;14.50;39.30;;;;;;6180169;28;20026;-71
2023/03/16 09:56:15;;;;;;;4.10;1.90;;;14.60;39.40;;;;;;6165223;28;20026;-75
2023/03/16 09:59:17;;;;;;;7.88;1.60;;;14.70;39.40;;;;;;6138235;28;20148;-74
2023/03/16 10:02:30;;;;;;;3.53;1.63;;;14.70;38.90;;;;;;6154746;28;20543;-73
2023/03/16 10:05:32;;;;;;;9.60;2.00;;;14.70;38.90;;;;;;6171337;28;20033;-72
2023/03/16 10:08:41;;;;;;;4.25;1.27;;;14.80;39.00;;;;;;6154461;28;20030;-73
2023/03/16 10:11:53;;;;;;;4.20;1.88;;;14.90;39.00;;;;;;6170875;28;20065;-73
2023/03/16 10:15:12;;;;;;;7.57;1.48;;;15.00;38.90;;;;;;6153369;28;20038;-74
2023/03/16 10:18:23;;;;;;;9.85;1.90;;;15.10;38.90;;;;;;6175619;28;20038;-73
2023/03/16 10:21:24;;;;;;;2.60;1.45;;;15.20;38.80;;;;;;6176831;28;20093;-73
2023/03/16 10:24:56;;;;;;;7.57;2.55;;;15.30;38.90;;;;;;6176900;28;20113;-73
2023/03/16 10:27:57;;;;;;;13.73;3.95;;;15.50;38.90;;;;;;6193820;28;20022;-72
2023/03/16 10:30:59;;;;;;;2.42;1.15;;;15.60;38.30;;;;;;6160127;28;20404;-74
2023/03/16 10:34:05;;;;;;;4.45;1.42;;;15.70;38.00;;;;;;6193491;28;20041;-74
2023/03/16 10:37:13;;;;;;;7.45;1.90;;;15.80;38.00;;;;;;6159742;28;20110;-73
2023/03/16 10:40:15;;;;;;;6.05;2.25;;;16.00;37.70;;;;;;6194550;28;20074;-75
2023/03/16 10:43:16;;;;;;;2.65;1.30;;;16.30;37.30;;;;;;6181086;28;20034;-74
2023/03/16 10:46:18;;;;;;;15.18;1.92;;;16.60;36.60;;;;;;6199808;28;20030;-72
2023/03/16 10:49:28;;;;;;;3.10;1.55;;;16.80;36.20;;;;;;6171582;28;20101;-73
2023/03/16 10:52:33;;;;;;;2.83;1.23;;;17.20;35.90;;;;;;6176482;28;20474;-72
2023/03/16 10:55:42;;;;;;;1.83;1.00;;;17.60;35.00;;;;;;6174923;28;20437;-72
2023/03/16 10:58:44;;;;;;;4.35;2.08;;;17.80;34.30;;;;;;6157295;28;20391;-73
2023/03/16 11:01:48;;;;;;;3.10;1.48;;;18.00;33.70;;;;;;6157118;28;20035;-73
2023/03/16 11:04:51;;;;;;;2.90;1.42;;;18.10;33.50;;;;;;6189504;28;20392;-74
2023/03/16 11:08:09;;;;;;;3.67;1.85;;;18.30;33.40;;;;;;6180827;28;20058;-74
2023/03/16 11:11:16;;;;;;;6.47;1.25;;;18.50;33.40;;;;;;6198843;28;20034;-73
2023/03/16 11:14:21;;;;;;;9.32;2.70;;;18.80;33.10;;;;;;6198470;28;20416;-74
2023/03/16 11:17:35;;;;;;;7.20;1.20;;;19.10;32.70;;;;;;6198607;28;20129;-73
2023/03/16 11:20:37;;;;;;;2.72;1.17;;;19.30;32.50;;;;;;6156769;28;20054;-74
2023/03/16 11:23:43;;;;;;;5.30;1.67;;;19.50;32.20;;;;;;6140749;28;20082;-73
2023/03/16 11:26:46;;;;;;;2.83;1.63;;;19.70;32.00;;;;;;6157415;28;20055;-73
2023/03/16 11:30:18;;;;;;;4.38;1.85;;;19.90;31.30;;;;;;6162793;28;20046;-74
2023/03/16 11:33:20;;;;;;;6.68;1.85;;;20.10;30.80;;;;;;6182347;28;20415;-75
2023/03/16 11:36:33;;;;;;;1.83;1.17;;;20.40;29.90;;;;;;6204450;28;20027;-75
2023/03/16 11:40:08;;;;;;;1.58;1.00;;;20.70;29.60;;;;;;6173737;28;20133;-74
2023/03/16 11:43:40;;;;;;;4.03;0.75;;;21.10;29.50;;;;;;6198347;28;20041;-72
2023/03/16 11:46:48;;;;;;;2.53;0.98;;;21.60;29.00;;;;;;6197990;28;20117;-74
2023/03/16 11:50:17;;;;;;;3.08;0.90;;;22.00;28.10;;;;;;6180523;28;20046;-74
2023/03/16 11:53:34;;;;;;;2.17;1.10;;;22.30;27.70;;;;;;6196871;28;20066;-73
2023/03/16 11:56:51;;;;;;;3.38;1.02;;;22.50;27.50;;;;;;6180394;28;20470;-73
2023/03/16 12:00:28;;;;;;;4.57;1.10;;;22.70;27.00;;;;;;6158892;28;20035;-73
2023/03/16 12:03:40;;;;;;;3.33;1.20;;;23.00;26.60;;;;;;6075400;29;20186;-74
2023/03/16 12:06:59;;;;;;;2.30;1.00;;;23.30;26.30;;;;;;6075229;29;20036;-74
2023/03/16 12:10:51;;;;;;;2.17;0.93;;;23.50;25.70;;;;;;6059684;29;20033;-75
2023/03/16 12:14:14;;;;;;;1.92;0.95;;;23.70;25.50;;;;;;5983278;29;20130;-73
2023/03/16 12:17:32;;;;;;;1.80;0.90;;;24.10;25.00;;;;;;5982994;29;20114;-73
2023/03/16 12:21:08;;;;;;;1.63;0.90;;;24.80;24.80;;;;;;6006223;29;20129;-74
2023/03/16 12:24:23;;;;;;;3.85;1.13;;;25.40;24.20;;;;;;6006392;29;20125;-73
2023/03/16 12:27:30;;;;;;;8.85;2.80;;;25.50;23.30;;;;;;6005353;29;20061;-74
2023/03/16 12:30:46;;;;;;;2.38;1.08;;;25.80;23.10;;;;;;5990025;29;20050;-73
2023/03/16 12:33:53;;;;;;;5.72;1.30;;;26.30;22.90;;;;;;6005624;29;20065;-73
2023/03/16 12:37:09;;;;;;;5.28;1.27;;;26.80;22.50;;;;;;5990026;29;20380;-74
2023/03/16 12:40:34;;;;;;;4.90;1.10;;;27.40;21.90;;;;;;6036992;29;20157;-72
2023/03/16 12:43:57;;;;;;;5.00;1.33;;;27.90;21.50;;;;;;6098346;28;20039;-74
2023/03/16 12:47:19;;;;;;;2.85;1.08;;;28.50;20.60;;;;;;6154777;28;20031;-75
2023/03/16 12:50:20;;;;;;;10.98;5.68;;;28.70;20.00;;;;;;6154770;28;20451;-74
2023/03/16 12:53:44;;;;;;;2.67;1.23;;;28.60;19.80;;;;;;6137964;28;20413;-74
2023/03/16 12:56:48;;;;;;;4.10;0.90;;;28.70;19.70;;;;;;6190157;28;20033;-74
2023/03/16 12:59:56;;;;;;;2.47;0.70;;;29.00;19.50;;;;;;6195666;28;20424;-73
2023/03/16 13:02:58;;;;;;;1.45;0.50;;;29.50;19.20;;;;;;6162400;28;20080;-74
2023/03/16 13:06:02;;;;;;;1.15;0.68;;;29.90;18.90;;;;;;6195720;28;20053;-75
2023/03/16 13:09:06;;;;;;;2.13;0.65;;;29.70;18.40;;;;;;6178001;28;20555;-74
2023/03/16 13:12:09;;;;;;;1.02;0.55;;;29.00;18.70;;;;;;6177954;28;20027;-75
2023/03/16 13:15:20;;;;;;;0.93;0.70;;;27.80;18.60;;;;;;6177964;28;20042;-73
2023/03/16 13:18:23;;;;;;;2.15;0.70;;;26.80;19.30;;;;;;6177618;28;20030;-74
2023/03/16 13:21:41;;;;;;;3.30;1.15;;;26.20;19.80;;;;;;6178057;28;20046;-74
2023/03/16 13:24:50;;;;;;;2.65;0.60;;;25.50;19.90;;;;;;6153669;28;20570;-75
2023/03/16 13:27:54;;;;;;;4.28;0.80;;;25.00;20.00;;;;;;6171772;28;20325;-73
2023/03/16 13:30:55;;;;;;;3.20;1.30;;;24.70;20.30;;;;;;6154038;28;20118;-75
2023/03/16 13:33:58;;;;;;;1.55;0.60;;;24.30;20.70;;;;;;6154710;28;20123;-74
2023/03/16 13:37:03;;;;;;;2.10;0.70;;;24.10;20.90;;;;;;6171434;28;20122;-73
2023/03/16 13:40:15;;;;;;;3.10;0.75;;;24.00;21.10;;;;;;6172136;28;20026;-76
2023/03/16 13:43:22;;;;;;;1.65;0.50;;;23.80;21.20;;;;;;6172299;28;20050;-74
2023/03/16 13:46:28;;;;;;;3.30;0.73;;;23.70;21.30;;;;;;6171925;28;20388;-74
2023/03/16 13:49:29;;;;;;;2.25;0.80;;;23.40;21.40;;;;;;6172520;28;20119;-74
2023/03/16 13:52:34;;;;;;;1.30;0.60;;;23.30;21.60;;;;;;6179550;28;20120;-75
2023/03/16 13:55:37;;;;;;;2.45;0.70;;;23.10;21.70;;;;;;6195308;28;20061;-73
2023/03/16 13:58:39;;;;;;;1.75;0.50;;;22.90;21.80;;;;;;6194493;28;20385;-73
2023/03/16 14:01:44;;;;;;;0.90;0.50;;;22.80;22.00;;;;;;6161397;28;20038;-74
2023/03/16 14:04:45;;;;;;;5.63;0.68;;;22.60;22.10;;;;;;6194457;28;20494;-73
2023/03/16 14:07:49;;;;;;;11.20;1.02;;;22.50;22.30;;;;;;6177565;28;20034;-75
2023/03/16 14:10:53;;;;;;;7.43;1.15;;;22.30;22.40;;;;;;6177302;28;20042;-75
2023/03/16 14:13:59;;;;;;;4.18;0.80;;;22.30;22.50;;;;;;6177371;28;20030;-74
2023/03/16 14:17:10;;;;;;;1.48;0.82;;;22.30;22.70;;;;;;6194219;28;20710;-74
2023/03/16 14:20:20;;;;;;;4.10;0.98;;;22.20;22.80;;;;;;6158219;28;20038;-75
2023/03/16 14:23:30;;;;;;;1.77;0.70;;;22.10;22.90;;;;;;6169660;28;20031;-74
2023/03/16 14:26:46;;;;;;;4.75;0.98;;;22.00;23.20;;;;;;6153776;28;20121;-73
2023/03/16 14:30:01;;;;;;;1.65;0.60;;;21.90;23.40;;;;;;6173551;28;20407;-73
2023/03/16 14:33:26;;;;;;;2.42;0.68;;;22.00;23.60;;;;;;6187359;28;20055;-74
2023/03/16 14:36:35;;;;;;;15.80;1.20;;;21.90;23.60;;;;;;6194332;28;20031;-75
2023/03/16 14:39:39;;;;;;;0.98;0.68;;;21.90;23.70;;;;;;6179199;28;20037;-74
2023/03/16 14:42:40;;;;;;;5.30;0.85;;;21.90;23.70;;;;;;6196088;28;20349;-75
2023/03/16 14:45:41;;;;;;;1.23;0.75;;;21.90;23.70;;;;;;6177921;28;20114;-75
2023/03/16 14:48:44;;;;;;;1.55;0.68;;;21.90;23.70;;;;;;6177201;28;20046;-73
2023/03/16 14:51:46;;;;;;;0.80;0.60;;;22.00;23.80;;;;;;6177780;28;20034;-74
2023/03/16 14:54:48;;;;;;;8.32;0.65;;;21.90;23.80;;;;;;6194578;28;20060;-73
2023/03/16 14:57:50;;;;;;;0.82;0.55;;;21.90;23.80;;;;;;6194227;28;20031;-74
2023/03/16 15:00:52;;;;;;;2.03;0.70;;;21.90;23.80;;;;;;6176795;28;20054;-73
2023/03/16 15:03:53;;;;;;;1.00;0.80;;;22.00;23.90;;;;;;6160409;28;20038;-74
2023/03/16 15:06:54;;;;;;;6.38;0.90;;;21.90;23.80;;;;;;6194373;28;20022;-73
2023/03/16 15:10:15;;;;;;;3.55;0.80;;;22.00;23.90;;;;;;6176865;28;20034;-73
2023/03/16 15:16:41;;;;;;;2.42;0.80;;;22.00;24.00;;;;;;6193479;28;20370;-74
2023/03/16 15:19:42;;;;;;;2.13;0.50;;;22.00;24.10;;;;;;6193167;28;20120;-74
2023/03/16 15:22:45;;;;;;;4.00;1.00;;;21.90;24.20;;;;;;6193622;28;20042;-72
2023/03/16 15:25:47;;;;;;;6.38;1.05;;;21.90;24.30;;;;;;6175805;28;20121;-74
2023/03/16 15:28:48;;;;;;;1.13;0.63;;;21.90;24.30;;;;;;6197390;28;20121;-73
2023/03/16 15:31:49;;;;;;;1.40;0.60;;;21.90;24.20;;;;;;6180988;28;20034;-74
2023/03/16 15:34:50;;;;;;;3.10;1.45;;;21.80;24.30;;;;;;6180376;28;20169;-73
2023/03/16 15:37:52;;;;;;;7.90;1.00;;;21.90;24.40;;;;;;6179895;28;20480;-74
2023/03/16 15:40:53;;;;;;;1.77;0.80;;;22.00;24.40;;;;;;6197986;28;20042;-75
2023/03/16 15:43:59;;;;;;;4.80;1.00;;;22.00;24.40;;;;;;6180488;28;20034;-74
2023/03/16 15:47:00;;;;;;;2.15;0.90;;;22.00;24.40;;;;;;6180209;28;20058;-73
2023/03/16 15:50:01;;;;;;;2.13;0.80;;;22.10;24.50;;;;;;6197750;28;20076;-73
2023/03/16 15:53:27;;;;;;;0.90;0.85;;;22.10;24.50;;;;;;6197544;28;20360;-73
2023/03/16 15:56:33;;;;;;;2.53;0.98;;;22.10;24.60;;;;;;6180318;28;20522;-73
2023/03/16 15:59:35;;;;;;;1.08;0.55;;;22.10;24.60;;;;;;6180227;28;20038;-73
2023/03/16 16:02:36;;;;;;;1.85;0.70;;;22.10;24.70;;;;;;6198104;28;20038;-74
2023/03/16 16:05:37;;;;;;;3.22;0.93;;;22.10;24.60;;;;;;6180336;28;20400;-74
2023/03/16 16:08:38;;;;;;;4.07;0.98;;;22.10;24.70;;;;;;6197340;28;20089;-75
2023/03/16 16:11:40;;;;;;;4.72;0.93;;;22.00;24.70;;;;;;6189245;28;20519;-73
2023/03/16 16:14:41;;;;;;;0.88;0.68;;;22.00;24.80;;;;;;6157725;28;20102;-72